sensor_id;sensor_type;location;lat;lon;timestamp;pressure;altitude;pressure_sealevel;temperature;humidity
69909;BME280;57190;47.918;8.112;2023-02-13T00:01:24;92352.56;;;0.81;84.61
69909;BME280;57190;47.918;8.112;2023-02-13T00:03:50;92356.69;;;0.84;84.69
69909;BME280;57190;47.918;8.112;2023-02-13T00:06:15;92355.16;;;0.89;84.96
69909;BME280;57190;47.918;8.112;2023-02-13T00:08:41;92349.56;;;0.92;84.69
69909;BME280;57190;47.918;8.112;2023-02-13T00:11:06;92351.22;;;0.93;84.87
69909;BME280;57190;47.918;8.112;2023-02-13T00:13:32;92350.69;;;0.98;85.54
69909;BME280;57190;47.918;8.112;2023-02-13T00:16:01;92346.19;;;1.07;85.43
69909;BME280;57190;47.918;8.112;2023-02-13T00:18:28;92353.94;;;1.08;85.27
69909;BME280;57190;47.918;8.112;2023-02-13T00:21:11;92351.41;;;1.15;85.38
69909;BME280;57190;47.918;8.112;2023-02-13T00:23:38;92355.34;;;1.19;85.02
69909;BME280;57190;47.918;8.112;2023-02-13T00:26:06;92355.69;;;1.16;84.96
69909;BME280;57190;47.918;8.112;2023-02-13T00:28:32;92351.59;;;1.14;84.45
69909;BME280;57190;47.918;8.112;2023-02-13T00:31:06;92352.97;;;1.01;84.82
69909;BME280;57190;47.918;8.112;2023-02-13T00:33:32;92347.56;;;1.03;85.25
69909;BME280;57190;47.918;8.112;2023-02-13T00:36:03;92356.09;;;1.05;84.65
69909;BME280;57190;47.918;8.112;2023-02-13T00:38:29;92356.75;;;0.99;84.74
69909;BME280;57190;47.918;8.112;2023-02-13T00:40:54;92356.28;;;0.95;84.83
69909;BME280;57190;47.918;8.112;2023-02-13T00:43:20;92353.50;;;0.88;85.00
69909;BME280;57190;47.918;8.112;2023-02-13T00:45:45;92353.69;;;0.87;84.61
69909;BME280;57190;47.918;8.112;2023-02-13T00:48:11;92351.59;;;0.82;85.23
69909;BME280;57190;47.918;8.112;2023-02-13T00:50:36;92359.13;;;0.85;85.26
69909;BME280;57190;47.918;8.112;2023-02-13T00:53:02;92357.50;;;0.84;84.69
69909;BME280;57190;47.918;8.112;2023-02-13T00:55:27;92359.78;;;0.87;84.97
69909;BME280;57190;47.918;8.112;2023-02-13T00:57:53;92367.19;;;0.84;85.12
69909;BME280;57190;47.918;8.112;2023-02-13T01:00:18;92360.81;;;0.78;84.15
69909;BME280;57190;47.918;8.112;2023-02-13T01:02:44;92359.19;;;0.69;84.44
69909;BME280;57190;47.918;8.112;2023-02-13T01:05:10;92359.53;;;0.66;84.42
69909;BME280;57190;47.918;8.112;2023-02-13T01:07:35;92368.25;;;0.66;84.67
69909;BME280;57190;47.918;8.112;2023-02-13T01:10:02;92365.16;;;0.62;84.46
69909;BME280;57190;47.918;8.112;2023-02-13T01:12:28;92361.19;;;0.58;84.44
69909;BME280;57190;47.918;8.112;2023-02-13T01:14:53;92366.63;;;0.57;84.72
69909;BME280;57190;47.918;8.112;2023-02-13T01:17:19;92367.44;;;0.57;84.58
69909;BME280;57190;47.918;8.112;2023-02-13T01:19:44;92372.22;;;0.54;83.97
69909;BME280;57190;47.918;8.112;2023-02-13T01:22:10;92363.81;;;0.58;84.66
69909;BME280;57190;47.918;8.112;2023-02-13T01:24:35;92367.13;;;0.60;84.58
69909;BME280;57190;47.918;8.112;2023-02-13T01:27:01;92362.00;;;0.67;84.69
69909;BME280;57190;47.918;8.112;2023-02-13T01:29:27;92371.00;;;0.73;84.04
69909;BME280;57190;47.918;8.112;2023-02-13T01:31:53;92376.13;;;0.66;83.99
69909;BME280;57190;47.918;8.112;2023-02-13T01:34:18;92369.38;;;0.63;84.88
69909;BME280;57190;47.918;8.112;2023-02-13T01:36:44;92370.38;;;0.71;84.16
69909;BME280;57190;47.918;8.112;2023-02-13T01:39:11;92367.78;;;0.62;83.85
69909;BME280;57190;47.918;8.112;2023-02-13T01:41:37;92365.50;;;0.51;83.80
69909;BME280;57190;47.918;8.112;2023-02-13T01:44:43;92364.03;;;0.49;84.15
69909;BME280;57190;47.918;8.112;2023-02-13T01:46:49;92363.69;;;0.52;84.45
69909;BME280;57190;47.918;8.112;2023-02-13T01:49:18;92364.84;;;0.49;83.69
69909;BME280;57190;47.918;8.112;2023-02-13T01:51:46;92364.66;;;0.51;84.10
69909;BME280;57190;47.918;8.112;2023-02-13T01:54:21;92361.72;;;0.54;84.46
69909;BME280;57190;47.918;8.112;2023-02-13T01:56:51;92359.06;;;0.62;84.06
69909;BME280;57190;47.918;8.112;2023-02-13T01:59:24;92363.31;;;0.63;83.85
69909;BME280;57190;47.918;8.112;2023-02-13T02:01:53;92360.53;;;0.56;84.08
69909;BME280;57190;47.918;8.112;2023-02-13T02:04:24;92355.66;;;0.53;84.34
69909;BME280;57190;47.918;8.112;2023-02-13T02:06:54;92354.50;;;0.56;83.84
69909;BME280;57190;47.918;8.112;2023-02-13T02:09:30;92357.91;;;0.56;83.36
69909;BME280;57190;47.918;8.112;2023-02-13T02:12:47;92359.41;;;0.51;83.63
69909;BME280;57190;47.918;8.112;2023-02-13T02:15:15;92352.88;;;0.46;83.64
69909;BME280;57190;47.918;8.112;2023-02-13T02:17:40;92353.38;;;0.42;83.22
69909;BME280;57190;47.918;8.112;2023-02-13T02:25:46;92348.31;;;0.40;83.82
69909;BME280;57190;47.918;8.112;2023-02-13T02:34:10;92338.25;;;-0.04;82.80
69909;BME280;57190;47.918;8.112;2023-02-13T02:39:42;92338.06;;;-0.11;83.66
69909;BME280;57190;47.918;8.112;2023-02-13T02:45:23;92334.94;;;0.02;83.59
69909;BME280;57190;47.918;8.112;2023-02-13T02:47:59;92333.47;;;-0.01;83.82
69909;BME280;57190;47.918;8.112;2023-02-13T02:50:51;92335.91;;;0.09;84.36
69909;BME280;57190;47.918;8.112;2023-02-13T02:56:12;92333.75;;;0.13;83.67
69909;BME280;57190;47.918;8.112;2023-02-13T02:58:53;92336.72;;;0.18;83.79
69909;BME280;57190;47.918;8.112;2023-02-13T03:01:39;92340.63;;;0.22;83.92
69909;BME280;57190;47.918;8.112;2023-02-13T03:04:42;92336.69;;;0.26;83.91
69909;BME280;57190;47.918;8.112;2023-02-13T03:07:28;92336.53;;;0.28;83.81
69909;BME280;57190;47.918;8.112;2023-02-13T03:10:02;92338.97;;;0.29;83.68
69909;BME280;57190;47.918;8.112;2023-02-13T03:13:05;92343.44;;;0.21;83.78
69909;BME280;57190;47.918;8.112;2023-02-13T03:15:47;92339.38;;;0.02;83.35
69909;BME280;57190;47.918;8.112;2023-02-13T03:18:36;92341.69;;;-0.12;83.45
69909;BME280;57190;47.918;8.112;2023-02-13T03:24:38;92340.56;;;-0.34;83.73
69909;BME280;57190;47.918;8.112;2023-02-13T03:29:53;92348.28;;;-0.33;84.91
69909;BME280;57190;47.918;8.112;2023-02-13T03:35:37;92345.16;;;-0.28;84.59
69909;BME280;57190;47.918;8.112;2023-02-13T03:41:42;92345.34;;;-0.29;83.45
69909;BME280;57190;47.918;8.112;2023-02-13T03:49:25;92348.59;;;-0.44;84.48
69909;BME280;57190;47.918;8.112;2023-02-13T03:55:32;92354.31;;;-0.49;83.28
69909;BME280;57190;47.918;8.112;2023-02-13T03:58:23;92352.03;;;-0.52;84.19
69909;BME280;57190;47.918;8.112;2023-02-13T04:01:11;92360.22;;;-0.55;84.32
69909;BME280;57190;47.918;8.112;2023-02-13T04:03:53;92353.34;;;-0.56;83.18
69909;BME280;57190;47.918;8.112;2023-02-13T04:06:26;92353.84;;;-0.60;83.45
69909;BME280;57190;47.918;8.112;2023-02-13T04:08:54;92350.88;;;-0.66;83.94
69909;BME280;57190;47.918;8.112;2023-02-13T04:14:06;92357.78;;;-0.65;84.39
69909;BME280;57190;47.918;8.112;2023-02-13T04:16:48;92361.38;;;-0.66;84.39
69909;BME280;57190;47.918;8.112;2023-02-13T04:19:16;92358.59;;;-0.64;84.17
69909;BME280;57190;47.918;8.112;2023-02-13T04:21:42;92362.53;;;-0.68;83.86
69909;BME280;57190;47.918;8.112;2023-02-13T04:24:08;92356.59;;;-0.78;84.16
69909;BME280;57190;47.918;8.112;2023-02-13T04:26:37;92364.63;;;-0.80;83.63
69909;BME280;57190;47.918;8.112;2023-02-13T04:29:03;92352.34;;;-0.88;84.42
69909;BME280;57190;47.918;8.112;2023-02-13T04:31:29;92363.13;;;-0.83;84.40
69909;BME280;57190;47.918;8.112;2023-02-13T04:33:55;92361.00;;;-0.79;84.04
69909;BME280;57190;47.918;8.112;2023-02-13T04:36:20;92354.66;;;-0.76;84.16
69909;BME280;57190;47.918;8.112;2023-02-13T04:38:46;92354.31;;;-0.73;84.12
69909;BME280;57190;47.918;8.112;2023-02-13T04:41:11;92360.03;;;-0.78;84.05
69909;BME280;57190;47.918;8.112;2023-02-13T04:43:37;92348.75;;;-0.87;83.47
69909;BME280;57190;47.918;8.112;2023-02-13T04:46:02;92353.13;;;-0.96;83.44
69909;BME280;57190;47.918;8.112;2023-02-13T04:48:28;92352.00;;;-0.93;83.38
69909;BME280;57190;47.918;8.112;2023-02-13T04:50:54;92353.50;;;-0.82;84.05
69909;BME280;57190;47.918;8.112;2023-02-13T04:53:19;92348.91;;;-0.80;83.63
69909;BME280;57190;47.918;8.112;2023-02-13T04:55:45;92351.69;;;-0.82;83.91
69909;BME280;57190;47.918;8.112;2023-02-13T04:58:10;92348.75;;;-0.78;83.86
69909;BME280;57190;47.918;8.112;2023-02-13T05:00:36;92343.16;;;-0.75;83.90
69909;BME280;57190;47.918;8.112;2023-02-13T05:03:06;92354.47;;;-0.75;83.83
69909;BME280;57190;47.918;8.112;2023-02-13T05:05:32;92352.19;;;-0.70;83.94
69909;BME280;57190;47.918;8.112;2023-02-13T05:07:58;92359.56;;;-0.65;83.45
69909;BME280;57190;47.918;8.112;2023-02-13T05:10:24;92351.22;;;-0.60;83.92
69909;BME280;57190;47.918;8.112;2023-02-13T05:12:49;92352.69;;;-0.58;84.00
69909;BME280;57190;47.918;8.112;2023-02-13T05:15:15;92351.69;;;-0.57;84.51
69909;BME280;57190;47.918;8.112;2023-02-13T05:17:45;92348.44;;;-0.59;84.17
69909;BME280;57190;47.918;8.112;2023-02-13T05:20:12;92356.13;;;-0.57;84.41
69909;BME280;57190;47.918;8.112;2023-02-13T05:25:28;92357.59;;;-0.63;84.68
69909;BME280;57190;47.918;8.112;2023-02-13T05:27:54;92362.53;;;-0.68;84.81
69909;BME280;57190;47.918;8.112;2023-02-13T05:30:19;92360.41;;;-0.65;84.52
69909;BME280;57190;47.918;8.112;2023-02-13T05:32:45;92358.41;;;-0.71;84.35
69909;BME280;57190;47.918;8.112;2023-02-13T05:35:10;92364.28;;;-0.77;84.48
69909;BME280;57190;47.918;8.112;2023-02-13T05:37:36;92367.25;;;-0.80;84.45
69909;BME280;57190;47.918;8.112;2023-02-13T05:40:01;92365.44;;;-0.88;84.31
69909;BME280;57190;47.918;8.112;2023-02-13T05:42:27;92365.25;;;-0.95;84.16
69909;BME280;57190;47.918;8.112;2023-02-13T05:44:52;92365.59;;;-0.98;84.57
69909;BME280;57190;47.918;8.112;2023-02-13T05:47:18;92362.59;;;-1.03;84.33
69909;BME280;57190;47.918;8.112;2023-02-13T05:49:43;92363.44;;;-1.11;84.00
69909;BME280;57190;47.918;8.112;2023-02-13T05:52:09;92367.81;;;-1.19;83.59
69909;BME280;57190;47.918;8.112;2023-02-13T05:54:34;92370.25;;;-1.26;83.64
69909;BME280;57190;47.918;8.112;2023-02-13T05:57:00;92364.31;;;-1.36;83.13
69909;BME280;57190;47.918;8.112;2023-02-13T05:59:26;92372.28;;;-1.46;83.49
69909;BME280;57190;47.918;8.112;2023-02-13T06:01:52;92369.63;;;-1.54;83.91
69909;BME280;57190;47.918;8.112;2023-02-13T06:04:17;92370.00;;;-1.49;83.64
69909;BME280;57190;47.918;8.112;2023-02-13T06:06:43;92374.22;;;-1.56;83.51
69909;BME280;57190;47.918;8.112;2023-02-13T06:09:09;92373.56;;;-1.59;83.87
69909;BME280;57190;47.918;8.112;2023-02-13T06:11:35;92380.44;;;-1.58;83.93
69909;BME280;57190;47.918;8.112;2023-02-13T06:14:00;92372.41;;;-1.56;82.99
69909;BME280;57190;47.918;8.112;2023-02-13T06:16:26;92381.88;;;-1.63;83.39
69909;BME280;57190;47.918;8.112;2023-02-13T06:18:51;92382.03;;;-1.65;83.41
69909;BME280;57190;47.918;8.112;2023-02-13T06:21:17;92376.34;;;-1.60;83.75
69909;BME280;57190;47.918;8.112;2023-02-13T06:23:42;92380.56;;;-1.59;83.93
69909;BME280;57190;47.918;8.112;2023-02-13T06:26:08;92384.69;;;-1.56;84.18
69909;BME280;57190;47.918;8.112;2023-02-13T06:28:34;92383.38;;;-1.52;84.33
69909;BME280;57190;47.918;8.112;2023-02-13T06:31:00;92380.31;;;-1.48;83.55
69909;BME280;57190;47.918;8.112;2023-02-13T06:33:26;92384.72;;;-1.48;83.25
69909;BME280;57190;47.918;8.112;2023-02-13T06:35:51;92382.25;;;-1.50;83.25
69909;BME280;57190;47.918;8.112;2023-02-13T06:38:17;92382.75;;;-1.46;84.31
69909;BME280;57190;47.918;8.112;2023-02-13T06:40:46;92389.00;;;-1.47;84.11
69909;BME280;57190;47.918;8.112;2023-02-13T06:43:13;92389.00;;;-1.47;84.29
69909;BME280;57190;47.918;8.112;2023-02-13T06:45:39;92383.94;;;-1.40;84.21
69909;BME280;57190;47.918;8.112;2023-02-13T06:48:05;92384.06;;;-1.50;83.79
69909;BME280;57190;47.918;8.112;2023-02-13T06:50:30;92378.63;;;-1.57;83.88
69909;BME280;57190;47.918;8.112;2023-02-13T06:52:56;92380.59;;;-1.51;84.46
69909;BME280;57190;47.918;8.112;2023-02-13T06:55:22;92383.75;;;-1.47;83.89
69909;BME280;57190;47.918;8.112;2023-02-13T06:57:47;92384.59;;;-1.38;83.28
69909;BME280;57190;47.918;8.112;2023-02-13T07:00:15;92389.03;;;-1.39;83.11
69909;BME280;57190;47.918;8.112;2023-02-13T07:02:43;92387.72;;;-1.35;82.81
69909;BME280;57190;47.918;8.112;2023-02-13T07:05:09;92381.72;;;-1.27;82.50
69909;BME280;57190;47.918;8.112;2023-02-13T07:07:36;92386.19;;;-1.03;82.53
69909;BME280;57190;47.918;8.112;2023-02-13T07:10:04;92389.34;;;-0.74;82.22
69909;BME280;57190;47.918;8.112;2023-02-13T07:12:34;92380.03;;;-0.60;81.87
69909;BME280;57190;47.918;8.112;2023-02-13T07:15:01;92386.13;;;-0.52;82.00
69909;BME280;57190;47.918;8.112;2023-02-13T07:17:27;92389.06;;;-0.46;81.22
69909;BME280;57190;47.918;8.112;2023-02-13T07:19:53;92382.84;;;-0.37;80.83
69909;BME280;57190;47.918;8.112;2023-02-13T07:22:19;92392.53;;;-0.29;80.92
69909;BME280;57190;47.918;8.112;2023-02-13T07:24:45;92389.38;;;-0.08;80.26
69909;BME280;57190;47.918;8.112;2023-02-13T07:27:10;92387.75;;;0.07;78.67
69909;BME280;57190;47.918;8.112;2023-02-13T07:29:36;92390.19;;;0.17;78.90
69909;BME280;57190;47.918;8.112;2023-02-13T07:32:02;92390.47;;;0.30;78.29
69909;BME280;57190;47.918;8.112;2023-02-13T07:34:27;92390.78;;;0.44;77.45
69909;BME280;57190;47.918;8.112;2023-02-13T07:36:53;92399.59;;;0.68;77.43
69909;BME280;57190;47.918;8.112;2023-02-13T07:39:18;92399.53;;;0.84;76.64
69909;BME280;57190;47.918;8.112;2023-02-13T07:41:44;92394.75;;;0.88;75.67
69909;BME280;57190;47.918;8.112;2023-02-13T07:44:10;92399.44;;;1.01;76.00
69909;BME280;57190;47.918;8.112;2023-02-13T07:46:36;92390.13;;;2.14;74.50
69909;BME280;57190;47.918;8.112;2023-02-13T07:49:01;92395.81;;;3.01;71.65
69909;BME280;57190;47.918;8.112;2023-02-13T07:51:27;92402.44;;;3.27;70.46
69909;BME280;57190;47.918;8.112;2023-02-13T07:53:53;92386.59;;;6.83;64.55
69909;BME280;57190;47.918;8.112;2023-02-13T07:56:19;92385.38;;;9.23;56.63
69909;BME280;57190;47.918;8.112;2023-02-13T07:58:45;92380.81;;;9.12;54.63
69909;BME280;57190;47.918;8.112;2023-02-13T08:01:13;92389.44;;;9.07;54.55
69909;BME280;57190;47.918;8.112;2023-02-13T08:03:39;92384.53;;;9.48;51.92
69909;BME280;57190;47.918;8.112;2023-02-13T08:06:06;92388.25;;;9.03;50.95
69909;BME280;57190;47.918;8.112;2023-02-13T08:08:32;92385.00;;;7.86;52.84
69909;BME280;57190;47.918;8.112;2023-02-13T08:11:06;92384.63;;;7.83;52.31
69909;BME280;57190;47.918;8.112;2023-02-13T08:13:51;92388.81;;;10.71;49.31
69909;BME280;57190;47.918;8.112;2023-02-13T08:16:16;92387.81;;;12.71;46.50
69909;BME280;57190;47.918;8.112;2023-02-13T08:18:42;92395.25;;;14.70;42.38
69909;BME280;57190;47.918;8.112;2023-02-13T08:21:08;92386.56;;;16.24;36.00
69909;BME280;57190;47.918;8.112;2023-02-13T08:23:33;92380.19;;;16.61;34.00
69909;BME280;57190;47.918;8.112;2023-02-13T08:26:00;92377.19;;;17.87;31.62
69909;BME280;57190;47.918;8.112;2023-02-13T08:28:30;92388.31;;;19.36;29.28
69909;BME280;57190;47.918;8.112;2023-02-13T08:30:55;92384.44;;;19.76;28.30
69909;BME280;57190;47.918;8.112;2023-02-13T08:33:21;92382.03;;;21.24;27.75
69909;BME280;57190;47.918;8.112;2023-02-13T08:35:46;92383.34;;;23.27;26.27
69909;BME280;57190;47.918;8.112;2023-02-13T08:38:12;92384.19;;;25.03;24.27
69909;BME280;57190;47.918;8.112;2023-02-13T08:40:38;92379.16;;;26.01;22.89
69909;BME280;57190;47.918;8.112;2023-02-13T08:43:04;92378.56;;;25.78;22.43
69909;BME280;57190;47.918;8.112;2023-02-13T08:45:31;92388.25;;;24.16;23.01
69909;BME280;57190;47.918;8.112;2023-02-13T08:47:58;92378.81;;;21.22;25.25
69909;BME280;57190;47.918;8.112;2023-02-13T08:50:25;92388.13;;;19.86;27.12
69909;BME280;57190;47.918;8.112;2023-02-13T08:52:51;92386.00;;;18.18;29.44
69909;BME280;57190;47.918;8.112;2023-02-13T08:55:17;92381.81;;;17.71;30.11
69909;BME280;57190;47.918;8.112;2023-02-13T08:57:43;92381.28;;;16.86;30.91
69909;BME280;57190;47.918;8.112;2023-02-13T09:00:09;92380.50;;;16.86;30.94
69909;BME280;57190;47.918;8.112;2023-02-13T09:02:34;92388.34;;;17.03;30.80
69909;BME280;57190;47.918;8.112;2023-02-13T09:05:00;92388.81;;;16.63;31.23
69909;BME280;57190;47.918;8.112;2023-02-13T09:07:25;92389.72;;;16.95;31.31
69909;BME280;57190;47.918;8.112;2023-02-13T09:09:51;92389.59;;;18.64;29.34
69909;BME280;57190;47.918;8.112;2023-02-13T09:12:16;92399.31;;;18.60;29.13
69909;BME280;57190;47.918;8.112;2023-02-13T09:14:42;92393.66;;;17.80;29.53
69909;BME280;57190;47.918;8.112;2023-02-13T09:17:07;92395.09;;;17.16;30.80
69909;BME280;57190;47.918;8.112;2023-02-13T09:19:33;92395.06;;;17.57;30.53
69909;BME280;57190;47.918;8.112;2023-02-13T09:21:58;92399.13;;;17.49;31.22
69909;BME280;57190;47.918;8.112;2023-02-13T09:24:24;92392.19;;;18.84;29.20
69909;BME280;57190;47.918;8.112;2023-02-13T09:26:50;92397.97;;;20.06;28.22
69909;BME280;57190;47.918;8.112;2023-02-13T09:29:16;92396.03;;;20.74;25.86
69909;BME280;57190;47.918;8.112;2023-02-13T09:31:42;92392.88;;;20.67;25.94
69909;BME280;57190;47.918;8.112;2023-02-13T09:34:07;92394.84;;;21.38;25.98
69909;BME280;57190;47.918;8.112;2023-02-13T09:36:33;92398.38;;;23.47;23.56
69909;BME280;57190;47.918;8.112;2023-02-13T09:39:00;92394.56;;;23.71;23.42
69909;BME280;57190;47.918;8.112;2023-02-13T09:41:36;92397.94;;;24.31;22.26
69909;BME280;57190;47.918;8.112;2023-02-13T09:44:12;92394.31;;;25.28;23.27
69909;BME280;57190;47.918;8.112;2023-02-13T09:49:25;92400.94;;;15.87;34.36
69909;BME280;57190;47.918;8.112;2023-02-13T09:51:55;92404.84;;;14.66;37.23
69909;BME280;57190;47.918;8.112;2023-02-13T09:54:21;92401.88;;;18.85;31.88
69909;BME280;57190;47.918;8.112;2023-02-13T10:16:44;92403.66;;;15.49;36.28
69909;BME280;57190;47.918;8.112;2023-02-13T10:19:39;92409.19;;;13.56;40.11
69909;BME280;57190;47.918;8.112;2023-02-13T10:22:45;92413.28;;;12.45;43.04
69909;BME280;57190;47.918;8.112;2023-02-13T10:25:24;92405.84;;;11.77;45.27
69909;BME280;57190;47.918;8.112;2023-02-13T10:28:27;92412.84;;;11.30;47.07
69909;BME280;57190;47.918;8.112;2023-02-13T10:30:55;92409.03;;;11.50;47.26
69909;BME280;57190;47.918;8.112;2023-02-13T10:33:27;92405.16;;;11.70;45.95
69909;BME280;57190;47.918;8.112;2023-02-13T10:36:14;92405.00;;;12.00;45.67
69909;BME280;57190;47.918;8.112;2023-02-13T10:38:54;92405.50;;;12.14;45.69
69909;BME280;57190;47.918;8.112;2023-02-13T10:44:34;92397.59;;;11.67;47.10
69909;BME280;57190;47.918;8.112;2023-02-13T10:52:27;92381.84;;;11.06;49.42
69909;BME280;57190;47.918;8.112;2023-02-13T11:03:24;92374.38;;;10.06;52.42
69909;BME280;57190;47.918;8.112;2023-02-13T11:05:52;92367.72;;;9.97;52.66
69909;BME280;57190;47.918;8.112;2023-02-13T11:08:33;92374.81;;;10.03;52.99
69909;BME280;57190;47.918;8.112;2023-02-13T11:10:59;92368.06;;;10.00;52.98
69909;BME280;57190;47.918;8.112;2023-02-13T11:13:28;92371.59;;;10.13;53.35
69909;BME280;57190;47.918;8.112;2023-02-13T11:16:02;92364.94;;;10.03;52.82
69909;BME280;57190;47.918;8.112;2023-02-13T11:18:35;92369.75;;;10.13;53.01
69909;BME280;57190;47.918;8.112;2023-02-13T11:23:45;92368.56;;;10.40;52.63
69909;BME280;57190;47.918;8.112;2023-02-13T11:26:28;92373.22;;;10.44;51.98
69909;BME280;57190;47.918;8.112;2023-02-13T11:28:58;92378.78;;;10.43;52.24
69909;BME280;57190;47.918;8.112;2023-02-13T11:31:30;92371.47;;;10.38;52.11
69909;BME280;57190;47.918;8.112;2023-02-13T11:33:57;92369.09;;;10.30;51.61
69909;BME280;57190;47.918;8.112;2023-02-13T11:39:20;92377.53;;;10.27;52.29
69909;BME280;57190;47.918;8.112;2023-02-13T11:41:47;92369.34;;;10.28;51.45
69909;BME280;57190;47.918;8.112;2023-02-13T11:44:28;92366.19;;;10.31;50.99
69909;BME280;57190;47.918;8.112;2023-02-13T11:46:59;92374.03;;;10.45;50.16
69909;BME280;57190;47.918;8.112;2023-02-13T11:49:28;92371.81;;;10.42;50.08
69909;BME280;57190;47.918;8.112;2023-02-13T11:51:59;92368.72;;;10.57;50.54
69909;BME280;57190;47.918;8.112;2023-02-13T11:54:43;92363.75;;;10.60;49.10
69909;BME280;57190;47.918;8.112;2023-02-13T11:59:42;92363.06;;;10.77;48.61
69909;BME280;57190;47.918;8.112;2023-02-13T12:04:36;92364.78;;;10.59;49.29
69909;BME280;57190;47.918;8.112;2023-02-13T12:07:11;92357.00;;;10.58;49.14
69909;BME280;57190;47.918;8.112;2023-02-13T12:09:40;92352.59;;;10.75;49.29
69909;BME280;57190;47.918;8.112;2023-02-13T12:12:15;92362.72;;;10.85;48.80
69909;BME280;57190;47.918;8.112;2023-02-13T12:14:44;92362.81;;;10.90;48.47
69909;BME280;57190;47.918;8.112;2023-02-13T12:17:20;92355.06;;;11.00;48.91
69909;BME280;57190;47.918;8.112;2023-02-13T12:19:48;92360.84;;;11.09;48.53
69909;BME280;57190;47.918;8.112;2023-02-13T12:22:21;92354.94;;;11.19;48.68
69909;BME280;57190;47.918;8.112;2023-02-13T12:35:31;92345.78;;;11.68;48.15
69909;BME280;57190;47.918;8.112;2023-02-13T12:44:14;92346.09;;;11.71;48.72
69909;BME280;57190;47.918;8.112;2023-02-13T12:55:02;92339.59;;;12.08;50.26
69909;BME280;57190;47.918;8.112;2023-02-13T12:57:46;92336.88;;;12.20;48.35
69909;BME280;57190;47.918;8.112;2023-02-13T13:06:13;92342.38;;;12.13;46.36
69909;BME280;57190;47.918;8.112;2023-02-13T13:14:53;92335.09;;;12.08;44.00
69909;BME280;57190;47.918;8.112;2023-02-13T13:17:36;92329.50;;;12.10;43.67
69909;BME280;57190;47.918;8.112;2023-02-13T13:28:53;92334.53;;;11.94;40.93
69909;BME280;57190;47.918;8.112;2023-02-13T13:31:22;92327.56;;;11.93;40.34
69909;BME280;57190;47.918;8.112;2023-02-13T13:33:50;92335.00;;;11.91;41.00
69909;BME280;57190;47.918;8.112;2023-02-13T13:39:46;92330.50;;;11.80;40.14
69909;BME280;57190;47.918;8.112;2023-02-13T13:53:05;92333.63;;;11.48;41.00
69909;BME280;57190;47.918;8.112;2023-02-13T14:03:41;92330.97;;;11.36;41.06
69909;BME280;57190;47.918;8.112;2023-02-13T14:06:13;92332.72;;;11.30;41.54
69909;BME280;57190;47.918;8.112;2023-02-13T14:11:06;92333.41;;;11.26;42.15
69909;BME280;57190;47.918;8.112;2023-02-13T14:13:49;92332.63;;;11.25;42.33
69909;BME280;57190;47.918;8.112;2023-02-13T14:16:37;92330.66;;;11.21;42.09
69909;BME280;57190;47.918;8.112;2023-02-13T14:19:04;92335.66;;;11.17;42.33
69909;BME280;57190;47.918;8.112;2023-02-13T14:21:30;92326.69;;;11.23;42.73
69909;BME280;57190;47.918;8.112;2023-02-13T14:23:57;92336.59;;;11.23;42.67
69909;BME280;57190;47.918;8.112;2023-02-13T14:32:15;92335.31;;;11.13;42.89
69909;BME280;57190;47.918;8.112;2023-02-13T14:34:50;92338.91;;;11.19;44.36
69909;BME280;57190;47.918;8.112;2023-02-13T14:37:23;92341.25;;;11.15;45.11
69909;BME280;57190;47.918;8.112;2023-02-13T14:42:37;92347.63;;;11.03;45.99
69909;BME280;57190;47.918;8.112;2023-02-13T14:45:12;92340.53;;;10.96;46.38
69909;BME280;57190;47.918;8.112;2023-02-13T14:47:46;92341.38;;;10.85;46.04
69909;BME280;57190;47.918;8.112;2023-02-13T14:50:23;92341.72;;;10.77;44.84
69909;BME280;57190;47.918;8.112;2023-02-13T14:52:53;92334.06;;;10.80;43.77
69909;BME280;57190;47.918;8.112;2023-02-13T14:55:35;92337.66;;;10.86;44.44
69909;BME280;57190;47.918;8.112;2023-02-13T14:58:15;92336.13;;;10.90;45.34
69909;BME280;57190;47.918;8.112;2023-02-13T15:00:53;92336.22;;;10.72;45.90
69909;BME280;57190;47.918;8.112;2023-02-13T15:03:28;92335.09;;;10.56;47.41
69909;BME280;57190;47.918;8.112;2023-02-13T15:06:04;92331.81;;;10.42;47.90
69909;BME280;57190;47.918;8.112;2023-02-13T15:08:35;92333.56;;;10.48;47.15
69909;BME280;57190;47.918;8.112;2023-02-13T15:11:02;92333.56;;;10.48;47.62
69909;BME280;57190;47.918;8.112;2023-02-13T15:13:34;92330.72;;;10.31;47.91
69909;BME280;57190;47.918;8.112;2023-02-13T15:16:10;92329.69;;;10.32;48.77
69909;BME280;57190;47.918;8.112;2023-02-13T15:18:49;92325.81;;;10.16;48.57
69909;BME280;57190;47.918;8.112;2023-02-13T15:21:21;92337.19;;;10.23;48.55
69909;BME280;57190;47.918;8.112;2023-02-13T15:23:53;92327.78;;;10.09;49.08
69909;BME280;57190;47.918;8.112;2023-02-13T15:26:24;92331.59;;;9.82;49.82
69909;BME280;57190;47.918;8.112;2023-02-13T15:29:03;92332.84;;;9.49;51.08
69909;BME280;57190;47.918;8.112;2023-02-13T15:31:37;92331.69;;;9.45;50.65
69909;BME280;57190;47.918;8.112;2023-02-13T15:34:03;92324.72;;;9.44;50.39
69909;BME280;57190;47.918;8.112;2023-02-13T15:36:39;92326.66;;;9.18;51.58
69909;BME280;57190;47.918;8.112;2023-02-13T15:39:06;92333.00;;;8.99;52.30
69909;BME280;57190;47.918;8.112;2023-02-13T15:41:39;92329.22;;;8.69;53.02
69909;BME280;57190;47.918;8.112;2023-02-13T15:44:06;92337.19;;;8.44;53.48
69909;BME280;57190;47.918;8.112;2023-02-13T15:46:35;92325.09;;;8.23;54.19
69909;BME280;57190;47.918;8.112;2023-02-13T15:49:14;92328.25;;;8.13;55.05
69909;BME280;57190;47.918;8.112;2023-02-13T15:51:41;92330.78;;;8.01;54.95
69909;BME280;57190;47.918;8.112;2023-02-13T15:54:32;92333.34;;;7.82;55.47
69909;BME280;57190;47.918;8.112;2023-02-13T15:57:01;92330.25;;;7.85;55.00
69909;BME280;57190;47.918;8.112;2023-02-13T15:59:32;92334.75;;;7.85;55.10
69909;BME280;57190;47.918;8.112;2023-02-13T16:01:59;92331.38;;;7.64;55.56
69909;BME280;57190;47.918;8.112;2023-02-13T16:04:26;92335.13;;;7.57;55.81
69909;BME280;57190;47.918;8.112;2023-02-13T16:06:54;92332.63;;;7.62;55.29
69909;BME280;57190;47.918;8.112;2023-02-13T16:09:33;92334.47;;;7.61;55.75
69909;BME280;57190;47.918;8.112;2023-02-13T16:12:03;92332.03;;;7.60;56.20
69909;BME280;57190;47.918;8.112;2023-02-13T16:14:31;92338.38;;;7.59;56.76
69909;BME280;57190;47.918;8.112;2023-02-13T16:17:03;92334.13;;;7.51;57.08